Time,TemperatureF,DewpointF,PressureIn,WindDirection,WindDirectionDegrees,WindSpeedMPH,WindSpeedGustMPH,Humidity,HourlyPrecipIn,Conditions,Clouds,dailyrainin,SoftwareType,DateUTC
2013-07-04 00:00:00,60.9,38.9,29.73,ESE,123,5.0,7.0,44,0.00,,CLR,0.03,VWS V14.01,2013-07-04 06:00:00,
2013-07-04 00:04:00,61.2,38.5,29.73,East,99,7.0,9.0,43,0.00,,CLR,0.00,VWS V14.01,2013-07-04 06:04:00,
2013-07-04 00:09:00,61.4,38.7,29.72,SE,144,3.0,9.0,43,0.00,,CLR,0.00,VWS V14.01,2013-07-04 06:09:00,
2013-07-04 00:14:00,60.3,41.1,29.73,West,262,2.0,9.0,49,0.00,,CLR,0.00,VWS V14.01,2013-07-04 06:14:00,
2013-07-04 00:20:00,59.1,41.5,29.73,WNW,297,0.0,9.0,52,0.00,,CLR,0.00,VWS V14.01,2013-07-04 06:20:00,
2013-07-04 00:25:00,58.4,40.9,29.73,East,99,0.0,9.0,52,0.00,,CLR,0.00,VWS V14.01,2013-07-04 06:25:00,
2013-07-04 00:30:00,58.2,41.2,29.73,East,98,0.0,9.0,53,0.00,,CLR,0.00,VWS V14.01,2013-07-04 06:30:00,
2013-07-04 00:35:00,58.0,41.0,29.73,ENE,60,0.0,1.0,53,0.00,,CLR,0.00,VWS V14.01,2013-07-04 06:35:00,
2013-07-04 00:40:00,58.4,38.8,29.73,SE,127,3.0,9.0,48,0.00,,CLR,0.00,VWS V14.01,2013-07-04 06:40:00,
2013-07-04 00:45:00,58.8,39.7,29.73,South,184,0.0,9.0,49,0.00,,CLR,0.00,VWS V14.01,2013-07-04 06:45:00,
2013-07-04 00:50:00,58.8,38.6,29.73,ENE,75,5.0,9.0,47,0.00,,CLR,0.00,VWS V14.01,2013-07-04 06:50:00,
2013-07-04 00:55:00,59.5,38.7,29.73,ESE,103,4.0,9.0,46,0.00,,CLR,0.00,VWS V14.01,2013-07-04 06:55:00,
2013-07-04 01:00:00,60.0,39.2,29.73,East,81,2.0,9.0,46,0.00,,CLR,0.00,VWS V14.01,2013-07-04 07:00:00,
2013-07-04 01:05:00,59.2,40.1,29.73,ENE,68,0.0,3.0,49,0.00,,CLR,0.00,VWS V14.01,2013-07-04 07:05:00,
2013-07-04 01:10:00,58.4,40.4,29.73,South,190,3.0,3.0,51,0.00,,CLR,0.00,VWS V14.01,2013-07-04 07:10:00,
2013-07-04 01:15:00,57.3,40.8,29.73,SSE,164,1.0,4.0,54,0.00,,CLR,0.00,VWS V14.01,2013-07-04 07:15:00,
2013-07-04 01:20:00,57.4,39.4,29.73,ESE,121,2.0,5.0,51,0.00,,CLR,0.00,VWS V14.01,2013-07-04 07:20:00,
2013-07-04 01:25:00,57.9,39.4,29.73,ESE,113,6.0,7.0,50,0.00,,CLR,0.00,VWS V14.01,2013-07-04 07:25:00,
2013-07-04 01:30:00,58.4,39.3,29.73,SE,129,2.0,3.0,49,0.00,,CLR,0.00,VWS V14.01,2013-07-04 07:30:00,
2013-07-04 01:35:00,58.7,39.6,29.73,ENE,76,5.0,6.0,49,0.00,,CLR,0.00,VWS V14.01,2013-07-04 07:35:00,
2013-07-04 01:40:00,59.0,39.4,29.73,SE,125,0.0,6.0,48,0.00,,CLR,0.00,VWS V14.01,2013-07-04 07:40:00,
2013-07-04 01:45:00,59.1,38.9,29.73,ESE,116,2.0,6.0,47,0.00,,CLR,0.00,VWS V14.01,2013-07-04 07:45:00,
2013-07-04 01:50:00,58.9,39.3,29.72,ESE,118,6.0,8.0,48,0.00,,CLR,0.00,VWS V14.01,2013-07-04 07:50:00,
2013-07-04 01:55:00,58.9,39.3,29.72,SE,124,6.0,10.0,48,0.00,,CLR,0.00,VWS V14.01,2013-07-04 07:55:00,
2013-07-04 02:00:00,59.1,39.5,29.72,ESE,121,5.0,8.0,48,0.00,,CLR,0.00,VWS V14.01,2013-07-04 08:00:00,
2013-07-04 02:05:00,59.3,39.6,29.72,SE,136,6.0,10.0,48,0.00,,CLR,0.00,VWS V14.01,2013-07-04 08:05:00,
2013-07-04 02:10:00,59.7,40.0,29.72,SE,126,5.0,10.0,48,0.00,,CLR,0.00,VWS V14.01,2013-07-04 08:10:00,
2013-07-04 02:15:00,59.8,40.1,29.72,SE,134,4.0,10.0,48,0.00,,CLR,0.00,VWS V14.01,2013-07-04 08:15:00,
2013-07-04 02:20:00,59.5,40.3,29.72,SSW,195,1.0,10.0,49,0.00,,CLR,0.00,VWS V14.01,2013-07-04 08:20:00,
2013-07-04 02:25:00,59.1,40.5,29.72,East,87,2.0,10.0,50,0.00,,CLR,0.00,VWS V14.01,2013-07-04 08:25:00,
2013-07-04 02:30:00,59.4,40.2,29.72,SE,146,9.0,10.0,49,0.00,,CLR,0.00,VWS V14.01,2013-07-04 08:30:00,
2013-07-04 02:35:00,59.6,40.4,29.72,SE,129,4.0,11.0,49,0.00,,CLR,0.00,VWS V14.01,2013-07-04 08:35:00,
2013-07-04 02:41:00,59.6,40.4,29.72,ESE,119,7.0,13.0,49,0.00,,CLR,0.00,VWS V14.01,2013-07-04 08:41:00,
2013-07-04 02:46:00,59.4,40.8,29.72,SE,134,3.0,13.0,50,0.00,,CLR,0.00,VWS V14.01,2013-07-04 08:46:00,
2013-07-04 02:51:00,59.2,41.1,29.72,SE,139,0.0,13.0,51,0.00,,CLR,0.00,VWS V14.01,2013-07-04 08:51:00,
2013-07-04 02:56:00,58.3,41.3,29.72,SSW,200,0.0,13.0,53,0.00,,CLR,0.00,VWS V14.01,2013-07-04 08:56:00,
2013-07-04 03:00:00,58.0,41.0,29.72,ESE,108,7.0,13.0,53,0.00,,CLR,0.00,VWS V14.01,2013-07-04 09:00:00,
2013-07-04 03:01:00,58.1,41.1,29.72,ESE,105,9.0,9.0,53,0.00,,CLR,0.00,VWS V14.01,2013-07-04 09:01:00,
2013-07-04 03:06:00,58.4,40.9,29.72,ESE,102,5.0,12.0,52,0.00,,CLR,0.00,VWS V14.01,2013-07-04 09:06:00,
2013-07-04 03:11:00,58.3,40.8,29.72,ESE,110,6.0,12.0,52,0.00,,CLR,0.00,VWS V14.01,2013-07-04 09:11:00,
2013-07-04 03:16:00,58.5,41.0,29.72,ESE,110,3.0,12.0,52,0.00,,CLR,0.00,VWS V14.01,2013-07-04 09:16:00,
2013-07-04 03:21:00,58.0,41.5,29.73,WSW,252,3.0,12.0,54,0.00,,CLR,0.00,VWS V14.01,2013-07-04 09:21:00,
2013-07-04 03:26:00,56.1,41.1,29.72,SSW,206,2.0,12.0,57,0.00,,CLR,0.00,VWS V14.01,2013-07-04 09:26:00,
2013-07-04 03:30:00,55.4,41.3,29.72,WSW,257,0.0,12.0,59,0.00,,CLR,0.00,VWS V14.01,2013-07-04 09:30:00,
2013-07-04 03:31:00,55.3,41.2,29.72,WSW,257,0.0,0.0,59,0.00,,CLR,0.00,VWS V14.01,2013-07-04 09:31:00,
2013-07-04 03:36:00,54.7,41.1,29.72,SSE,159,0.0,1.0,60,0.00,,CLR,0.00,VWS V14.01,2013-07-04 09:36:00,
2013-07-04 03:41:00,54.5,41.3,29.72,SSE,150,0.0,1.0,61,0.00,,CLR,0.00,VWS V14.01,2013-07-04 09:41:00,
2013-07-04 03:46:00,54.3,41.2,29.71,East,89,2.0,2.0,61,0.00,,CLR,0.00,VWS V14.01,2013-07-04 09:46:00,
2013-07-04 03:51:00,54.3,41.2,29.71,ENE,76,0.0,3.0,61,0.00,,CLR,0.00,VWS V14.01,2013-07-04 09:51:00,
2013-07-04 03:56:00,53.9,41.2,29.72,ENE,75,1.0,3.0,62,0.00,,CLR,0.00,VWS V14.01,2013-07-04 09:56:00,
2013-07-04 04:00:00,53.8,41.1,29.72,ENE,67,0.0,3.0,62,0.00,,CLR,0.00,VWS V14.01,2013-07-04 10:00:00,
2013-07-04 04:01:00,53.8,41.1,29.72,ENE,68,0.0,0.0,62,0.00,,CLR,0.00,VWS V14.01,2013-07-04 10:01:00,
2013-07-04 04:06:00,53.7,41.0,29.72,ENE,68,0.0,0.0,62,0.00,,CLR,0.00,VWS V14.01,2013-07-04 10:06:00,
2013-07-04 04:11:00,53.5,41.2,29.72,WSW,245,2.0,2.0,63,0.00,,CLR,0.00,VWS V14.01,2013-07-04 10:11:00,
2013-07-04 04:16:00,53.0,41.2,29.72,South,179,2.0,3.0,64,0.00,,CLR,0.00,VWS V14.01,2013-07-04 10:16:00,
2013-07-04 04:21:00,52.5,41.1,29.72,SSE,152,1.0,3.0,65,0.00,,CLR,0.00,VWS V14.01,2013-07-04 10:21:00,
2013-07-04 04:26:00,52.9,41.1,29.72,SSE,152,0.0,3.0,64,0.00,,CLR,0.00,VWS V14.01,2013-07-04 10:26:00,
2013-07-04 04:30:00,53.3,41.0,29.72,ESE,121,0.0,3.0,63,0.00,,CLR,0.00,VWS V14.01,2013-07-04 10:30:00,
2013-07-04 04:31:00,53.6,41.3,29.72,ESE,106,4.0,4.0,63,0.00,,CLR,0.00,VWS V14.01,2013-07-04 10:31:00,
2013-07-04 04:36:00,54.8,41.2,29.72,ENE,67,7.0,8.0,60,0.00,,CLR,0.00,VWS V14.01,2013-07-04 10:36:00,
2013-07-04 04:41:00,55.8,41.3,29.72,ENE,75,2.0,9.0,58,0.00,,CLR,0.00,VWS V14.01,2013-07-04 10:41:00,
2013-07-04 04:46:00,55.1,41.5,29.72,ENE,78,1.0,9.0,60,0.00,,CLR,0.00,VWS V14.01,2013-07-04 10:46:00,
2013-07-04 04:51:00,54.2,41.1,29.72,ENE,61,3.0,9.0,61,0.00,,CLR,0.00,VWS V14.01,2013-07-04 10:51:00,
2013-07-04 04:56:00,53.9,41.2,29.72,East,82,1.0,9.0,62,0.00,,CLR,0.00,VWS V14.01,2013-07-04 10:56:00,
2013-07-04 05:00:00,53.9,41.2,29.72,ENE,72,3.0,9.0,62,0.00,,CLR,0.00,VWS V14.01,2013-07-04 11:00:00,
2013-07-04 05:01:00,54.1,41.0,29.72,East,88,3.0,6.0,61,0.00,,CLR,0.00,VWS V14.01,2013-07-04 11:01:00,
2013-07-04 05:06:00,54.6,41.4,29.72,ESE,108,2.0,6.0,61,0.00,,CLR,0.00,VWS V14.01,2013-07-04 11:06:00,
2013-07-04 05:12:00,54.8,41.2,29.72,East,100,2.0,6.0,60,0.00,,CLR,0.00,VWS V14.01,2013-07-04 11:12:00,
2013-07-04 05:17:00,54.8,41.2,29.72,East,99,0.0,6.0,60,0.00,,CLR,0.00,VWS V14.01,2013-07-04 11:17:00,
2013-07-04 05:22:00,54.0,41.3,29.72,ESE,118,0.0,6.0,62,0.00,,CLR,0.00,VWS V14.01,2013-07-04 11:22:00,
2013-07-04 05:27:00,54.3,41.2,29.71,ESE,108,3.0,6.0,61,0.00,,CLR,0.00,VWS V14.01,2013-07-04 11:27:00,
2013-07-04 05:30:00,54.9,40.9,29.72,ESE,117,3.0,7.0,59,0.00,,CLR,0.00,VWS V14.01,2013-07-04 11:30:00,
2013-07-04 05:32:00,55.1,41.5,29.72,SE,131,2.0,4.0,60,0.00,,CLR,0.00,VWS V14.01,2013-07-04 11:32:00,
2013-07-04 05:37:00,55.1,41.0,29.71,SSE,150,2.0,6.0,59,0.00,,CLR,0.00,VWS V14.01,2013-07-04 11:37:00,
2013-07-04 05:42:00,55.5,41.0,29.71,ESE,122,3.0,6.0,58,0.00,,CLR,0.00,VWS V14.01,2013-07-04 11:42:00,
2013-07-04 05:47:00,55.4,40.9,29.72,SE,141,3.0,6.0,58,0.00,,CLR,0.00,VWS V14.01,2013-07-04 11:47:00,
2013-07-04 05:52:00,55.1,41.0,29.72,SE,125,0.0,6.0,59,0.00,,CLR,0.00,VWS V14.01,2013-07-04 11:52:00,
2013-07-04 05:57:00,55.1,41.0,29.72,ESE,103,1.0,6.0,59,0.00,,CLR,0.00,VWS V14.01,2013-07-04 11:57:00,
2013-07-04 06:00:00,55.3,40.8,29.71,East,101,2.0,6.0,58,0.00,,CLR,0.00,VWS V14.01,2013-07-04 12:00:00,
2013-07-04 06:02:00,55.5,41.0,29.71,East,98,2.0,3.0,58,0.00,,CLR,0.00,VWS V14.01,2013-07-04 12:02:00,
2013-07-04 06:08:00,56.0,41.0,29.72,SE,137,0.0,0.0,57,0.00,,CLR,0.00,VWS V14.01,2013-07-04 12:08:00,
2013-07-04 06:13:00,56.1,41.1,29.72,SE,142,0.0,4.0,57,0.00,,CLR,0.00,VWS V14.01,2013-07-04 12:13:00,
2013-07-04 06:18:00,55.1,41.5,29.72,NE,34,0.0,4.0,60,0.00,,CLR,0.00,VWS V14.01,2013-07-04 12:18:00,
2013-07-04 06:23:00,54.0,41.3,29.72,South,187,1.0,4.0,62,0.00,,CLR,0.00,VWS V14.01,2013-07-04 12:23:00,
2013-07-04 06:28:00,53.8,41.9,29.72,SE,145,0.0,4.0,64,0.00,,CLR,0.00,VWS V14.01,2013-07-04 12:28:00,
2013-07-04 06:30:00,53.9,41.6,29.72,SE,146,0.0,4.0,63,0.00,,CLR,0.00,VWS V14.01,2013-07-04 12:30:00,
2013-07-04 06:33:00,54.3,41.6,29.72,South,170,0.0,1.0,62,0.00,,CLR,0.00,VWS V14.01,2013-07-04 12:33:00,
2013-07-04 06:38:00,55.1,41.9,29.72,South,170,0.0,1.0,61,0.00,,CLR,0.00,VWS V14.01,2013-07-04 12:38:00,
2013-07-04 06:43:00,55.4,42.2,29.72,SE,136,1.0,1.0,61,0.00,,CLR,0.00,VWS V14.01,2013-07-04 12:43:00,
2013-07-04 06:48:00,56.0,41.9,29.72,SW,221,1.0,2.0,59,0.00,,CLR,0.00,VWS V14.01,2013-07-04 12:48:00,
2013-07-04 06:53:00,56.6,42.0,29.72,WSW,237,0.0,5.0,58,0.00,,CLR,0.00,VWS V14.01,2013-07-04 12:53:00,
2013-07-04 06:58:00,56.8,41.8,29.72,West,259,0.0,5.0,57,0.00,,CLR,0.00,VWS V14.01,2013-07-04 12:58:00,
2013-07-04 07:00:00,56.9,42.3,29.72,West,259,0.0,5.0,58,0.00,,CLR,0.00,VWS V14.01,2013-07-04 13:00:00,
2013-07-04 07:03:00,57.4,44.1,29.72,NE,56,1.0,1.0,61,0.00,,CLR,0.00,VWS V14.01,2013-07-04 13:03:00,
2013-07-04 07:08:00,57.9,45.0,29.72,ENE,58,0.0,2.0,62,0.00,,CLR,0.00,VWS V14.01,2013-07-04 13:08:00,
2013-07-04 07:13:00,58.3,44.5,29.72,NE,54,0.0,2.0,60,0.00,,CLR,0.00,VWS V14.01,2013-07-04 13:13:00,
2013-07-04 07:18:00,59.1,44.3,29.72,NE,54,0.0,2.0,58,0.00,,CLR,0.00,VWS V14.01,2013-07-04 13:18:00,
2013-07-04 07:23:00,59.9,43.7,29.72,North,1,0.0,2.0,55,0.00,,CLR,0.00,VWS V14.01,2013-07-04 13:23:00,
2013-07-04 07:28:00,60.6,43.4,29.73,ENE,63,0.0,2.0,53,0.00,,CLR,0.00,VWS V14.01,2013-07-04 13:28:00,
2013-07-04 07:30:00,60.8,43.6,29.72,ENE,63,0.0,2.0,53,0.00,,CLR,0.00,VWS V14.01,2013-07-04 13:30:00,
2013-07-04 07:33:00,61.6,43.8,29.73,ENE,64,0.0,0.0,52,0.00,,CLR,0.00,VWS V14.01,2013-07-04 13:33:00,
2013-07-04 07:38:00,62.5,43.6,29.72,ENE,63,0.0,1.0,50,0.00,,CLR,0.00,VWS V14.01,2013-07-04 13:38:00,
2013-07-04 07:43:00,62.2,43.9,29.72,NNE,20,0.0,1.0,51,0.00,,CLR,0.00,VWS V14.01,2013-07-04 13:43:00,
2013-07-04 07:49:00,61.8,43.5,29.73,NW,323,0.0,1.0,51,0.00,,CLR,0.00,VWS V14.01,2013-07-04 13:49:00,
2013-07-04 07:54:00,61.6,43.8,29.73,WSW,255,1.0,2.0,52,0.00,,CLR,0.00,VWS V14.01,2013-07-04 13:54:00,
2013-07-04 07:56:00,61.6,43.8,29.73,WSW,252,0.0,2.0,52,0.00,,CLR,0.00,VWS V14.01,2013-07-04 13:56:00,
2013-07-04 08:00:00,62.0,44.7,29.73,West,278,0.0,2.0,53,0.00,,CLR,0.00,VWS V14.01,2013-07-04 14:00:00,
2013-07-04 08:01:00,62.1,44.8,29.73,West,278,0.0,0.0,53,0.00,,CLR,0.00,VWS V14.01,2013-07-04 14:01:00,
2013-07-04 08:06:00,62.4,44.6,29.73,West,277,1.0,3.0,52,0.00,,CLR,0.00,VWS V14.01,2013-07-04 14:06:00,
2013-07-04 08:11:00,62.9,44.5,29.73,NNW,347,0.0,3.0,51,0.00,,CLR,0.00,VWS V14.01,2013-07-04 14:11:00,
2013-07-04 08:16:00,64.0,45.5,29.73,NNW,340,1.0,3.0,51,0.00,,CLR,0.00,VWS V14.01,2013-07-04 14:16:00,
2013-07-04 08:21:00,63.5,46.1,29.74,NNW,342,0.0,3.0,53,0.00,,CLR,0.00,VWS V14.01,2013-07-04 14:21:00,
2013-07-04 08:26:00,63.8,45.3,29.74,NNW,340,0.0,3.0,51,0.00,,CLR,0.00,VWS V14.01,2013-07-04 14:26:00,
2013-07-04 08:30:00,64.2,45.2,29.74,NE,53,0.0,3.0,50,0.00,,CLR,0.00,VWS V14.01,2013-07-04 14:30:00,
2013-07-04 08:31:00,64.3,45.3,29.74,ENE,57,1.0,1.0,50,0.00,,CLR,0.00,VWS V14.01,2013-07-04 14:31:00,
2013-07-04 08:36:00,64.9,45.8,29.74,NNW,344,0.0,2.0,50,0.00,,CLR,0.00,VWS V14.01,2013-07-04 14:36:00,
2013-07-04 08:41:00,65.7,46.6,29.73,North,1,0.0,2.0,50,0.00,,CLR,0.00,VWS V14.01,2013-07-04 14:41:00,
2013-07-04 08:46:00,66.1,45.9,29.73,North,5,1.0,2.0,48,0.00,,CLR,0.00,VWS V14.01,2013-07-04 14:46:00,
2013-07-04 08:51:00,66.2,45.4,29.73,NNW,327,3.0,3.0,47,0.00,,CLR,0.00,VWS V14.01,2013-07-04 14:51:00,
2013-07-04 08:56:00,65.7,45.5,29.73,NW,319,1.0,3.0,48,0.00,,CLR,0.00,VWS V14.01,2013-07-04 14:56:00,
2013-07-04 09:00:00,65.6,44.8,29.73,NNW,327,0.0,4.0,47,0.00,,CLR,0.00,VWS V14.01,2013-07-04 15:00:00,
2013-07-04 09:01:00,65.7,44.9,29.73,NNW,333,0.0,3.0,47,0.00,,CLR,0.00,VWS V14.01,2013-07-04 15:01:00,
2013-07-04 09:06:00,65.8,45.0,29.73,NW,326,2.0,3.0,47,0.00,,CLR,0.00,VWS V14.01,2013-07-04 15:06:00,
2013-07-04 09:11:00,66.2,46.5,29.73,NE,54,1.0,3.0,49,0.00,,CLR,0.00,VWS V14.01,2013-07-04 15:11:00,
2013-07-04 09:16:00,67.3,45.8,29.73,North,355,0.0,3.0,46,0.00,,CLR,0.00,VWS V14.01,2013-07-04 15:16:00,
2013-07-04 09:21:00,67.3,44.7,29.73,WNW,283,1.0,3.0,44,0.00,,CLR,0.00,VWS V14.01,2013-07-04 15:21:00,
2013-07-04 09:26:00,67.1,44.5,29.73,WNW,295,0.0,3.0,44,0.00,,CLR,0.00,VWS V14.01,2013-07-04 15:26:00,
2013-07-04 09:30:00,67.1,44.5,29.73,West,266,1.0,3.0,44,0.00,,CLR,0.00,VWS V14.01,2013-07-04 15:30:00,
2013-07-04 09:31:00,67.1,44.5,29.73,West,274,0.0,1.0,44,0.00,,CLR,0.00,VWS V14.01,2013-07-04 15:31:00,
2013-07-04 09:36:00,67.7,45.0,29.73,WNW,283,1.0,3.0,44,0.00,,CLR,0.00,VWS V14.01,2013-07-04 15:36:00,
2013-07-04 09:41:00,68.3,45.0,29.73,WNW,300,0.0,3.0,43,0.00,,CLR,0.00,VWS V14.01,2013-07-04 15:41:00,
2013-07-04 09:46:00,68.5,45.8,29.73,WNW,283,0.0,3.0,44,0.00,,CLR,0.00,VWS V14.01,2013-07-04 15:46:00,
2013-07-04 09:51:00,69.5,45.4,29.73,WNW,297,1.0,3.0,42,0.00,,CLR,0.00,VWS V14.01,2013-07-04 15:51:00,
2013-07-04 09:56:00,69.6,43.6,29.73,NNW,330,2.0,3.0,39,0.00,,CLR,0.00,VWS V14.01,2013-07-04 15:56:00,
2013-07-04 10:00:00,69.7,45.6,29.72,NNW,340,1.0,4.0,42,0.00,,CLR,0.00,VWS V14.01,2013-07-04 16:00:00,
2013-07-04 10:02:00,69.8,45.1,29.72,NNW,327,0.0,2.0,41,0.00,,CLR,0.00,VWS V14.01,2013-07-04 16:02:00,
2013-07-04 10:07:00,69.9,43.8,29.72,NW,309,0.0,4.0,39,0.00,,CLR,0.00,VWS V14.01,2013-07-04 16:07:00,
2013-07-04 10:12:00,70.6,44.5,29.72,WNW,290,3.0,4.0,39,0.00,,CLR,0.00,VWS V14.01,2013-07-04 16:12:00,
2013-07-04 10:17:00,70.5,44.4,29.72,WNW,300,2.0,5.0,39,0.00,,CLR,0.00,VWS V14.01,2013-07-04 16:17:00,
2013-07-04 10:22:00,71.0,44.8,29.72,NNW,340,1.0,5.0,39,0.00,,CLR,0.00,VWS V14.01,2013-07-04 16:22:00,
2013-07-04 10:27:00,71.0,42.7,29.71,NW,314,0.0,6.0,36,0.00,,CLR,0.00,VWS V14.01,2013-07-04 16:27:00,
2013-07-04 10:30:00,71.5,44.6,29.71,North,349,0.0,6.0,38,0.00,,CLR,0.00,VWS V14.01,2013-07-04 16:30:00,
2013-07-04 10:32:00,71.9,43.5,29.71,WNW,302,0.0,0.0,36,0.00,,CLR,0.00,VWS V14.01,2013-07-04 16:32:00,
2013-07-04 10:37:00,72.8,41.3,29.71,NW,308,2.0,3.0,32,0.00,,CLR,0.00,VWS V14.01,2013-07-04 16:37:00,
2013-07-04 10:42:00,72.3,41.6,29.71,West,278,0.0,4.0,33,0.00,,CLR,0.00,VWS V14.01,2013-07-04 16:42:00,
2013-07-04 10:47:00,73.0,42.2,29.70,SW,216,1.0,4.0,33,0.00,,CLR,0.00,VWS V14.01,2013-07-04 16:47:00,
2013-07-04 10:52:00,73.3,44.0,29.70,NW,308,3.0,6.0,35,0.00,,CLR,0.00,VWS V14.01,2013-07-04 16:52:00,
2013-07-04 10:57:00,73.4,43.3,29.70,WSW,246,0.0,6.0,34,0.00,,CLR,0.00,VWS V14.01,2013-07-04 16:57:00,
2013-07-04 11:00:00,73.6,42.0,29.70,WNW,287,2.0,8.0,32,0.00,,CLR,0.00,VWS V14.01,2013-07-04 17:00:00,
2013-07-04 11:02:00,73.6,42.0,29.70,West,273,1.0,5.0,32,0.00,,CLR,0.00,VWS V14.01,2013-07-04 17:02:00,
2013-07-04 11:07:00,74.1,41.6,29.69,ESE,108,0.0,5.0,31,0.00,,CLR,0.00,VWS V14.01,2013-07-04 17:07:00,
2013-07-04 11:12:00,74.5,41.1,29.69,WSW,252,0.0,5.0,30,0.00,,CLR,0.00,VWS V14.01,2013-07-04 17:12:00,
2013-07-04 11:17:00,75.2,42.5,29.69,NNW,335,4.0,5.0,31,0.00,,CLR,0.00,VWS V14.01,2013-07-04 17:17:00,
2013-07-04 11:22:00,75.7,43.0,29.69,WSW,249,4.0,5.0,31,0.00,,CLR,0.00,VWS V14.01,2013-07-04 17:22:00,
2013-07-04 11:27:00,76.1,41.6,29.69,SW,218,2.0,5.0,29,0.00,,CLR,0.00,VWS V14.01,2013-07-04 17:27:00,
2013-07-04 11:30:00,76.3,41.7,29.69,WNW,294,2.0,5.0,29,0.00,,CLR,0.00,VWS V14.01,2013-07-04 17:30:00,
2013-07-04 11:32:00,76.2,41.7,29.68,SW,224,4.0,5.0,29,0.00,,CLR,0.00,VWS V14.01,2013-07-04 17:32:00,
2013-07-04 11:37:00,76.6,42.9,29.68,West,280,2.0,5.0,30,0.00,,CLR,0.00,VWS V14.01,2013-07-04 17:37:00,
2013-07-04 11:42:00,77.2,41.6,29.68,West,260,2.0,5.0,28,0.00,,CLR,0.00,VWS V14.01,2013-07-04 17:42:00,
2013-07-04 11:47:00,77.6,41.0,29.68,West,276,1.0,5.0,27,0.00,,CLR,0.00,VWS V14.01,2013-07-04 17:47:00,
2013-07-04 11:52:00,78.5,40.8,29.68,West,262,6.0,7.0,26,0.00,,CLR,0.00,VWS V14.01,2013-07-04 17:52:00,
2013-07-04 11:57:00,78.2,39.5,29.68,WSW,257,4.0,7.0,25,0.00,,CLR,0.00,VWS V14.01,2013-07-04 17:57:00,
2013-07-04 12:00:00,78.6,40.9,29.68,West,273,5.0,7.0,26,0.00,,CLR,0.00,VWS V14.01,2013-07-04 18:00:00,
2013-07-04 12:02:00,78.7,40.0,29.68,WNW,284,0.0,5.0,25,0.00,,CLR,0.00,VWS V14.01,2013-07-04 18:02:00,
2013-07-04 12:07:00,79.0,38.1,29.67,WNW,294,1.0,8.0,23,0.00,,CLR,0.00,VWS V14.01,2013-07-04 18:07:00,
2013-07-04 12:12:00,78.6,38.8,29.67,West,266,4.0,8.0,24,0.00,,CLR,0.00,VWS V14.01,2013-07-04 18:12:00,
2013-07-04 12:17:00,78.9,39.1,29.67,SW,236,6.0,8.0,24,0.00,,CLR,0.00,VWS V14.01,2013-07-04 18:17:00,
2013-07-04 12:23:00,79.2,39.3,29.67,SSE,155,1.0,8.0,24,0.00,,CLR,0.00,VWS V14.01,2013-07-04 18:23:00,
2013-07-04 12:28:00,80.6,38.3,29.67,NW,316,1.0,8.0,22,0.00,,CLR,0.00,VWS V14.01,2013-07-04 18:28:00,
2013-07-04 12:30:00,81.0,39.8,29.67,NW,317,2.0,8.0,23,0.00,,CLR,0.00,VWS V14.01,2013-07-04 18:30:00,
2013-07-04 12:33:00,81.1,38.7,29.66,WNW,296,3.0,5.0,22,0.00,,CLR,0.00,VWS V14.01,2013-07-04 18:33:00,
2013-07-04 12:38:00,80.8,38.5,29.66,West,269,2.0,5.0,22,0.00,,CLR,0.00,VWS V14.01,2013-07-04 18:38:00,
2013-07-04 12:43:00,81.4,37.8,29.66,SW,236,7.0,8.0,21,0.00,,CLR,0.00,VWS V14.01,2013-07-04 18:43:00,
2013-07-04 12:48:00,81.0,37.4,29.66,WNW,290,1.0,8.0,21,0.00,,CLR,0.00,VWS V14.01,2013-07-04 18:48:00,
2013-07-04 12:53:00,82.5,39.9,29.66,NNW,328,5.0,8.0,22,0.00,,CLR,0.00,VWS V14.01,2013-07-04 18:53:00,
2013-07-04 12:58:00,82.1,38.3,29.65,West,260,5.0,9.0,21,0.00,,CLR,0.00,VWS V14.01,2013-07-04 18:58:00,
2013-07-04 13:00:00,82.0,38.3,29.65,SW,235,2.0,9.0,21,0.00,,CLR,0.00,VWS V14.01,2013-07-04 19:00:00,
2013-07-04 13:03:00,81.9,38.2,29.65,NNW,333,5.0,6.0,21,0.00,,FEW100,0.00,VWS V14.01,2013-07-04 19:03:00,
2013-07-04 13:08:00,81.6,39.1,29.65,NE,49,6.0,11.0,22,0.00,,FEW100,0.00,VWS V14.01,2013-07-04 19:08:00,
2013-07-04 13:13:00,82.5,39.9,29.65,WNW,302,0.0,11.0,22,0.00,,FEW100,0.00,VWS V14.01,2013-07-04 19:13:00,
2013-07-04 13:18:00,82.7,37.6,29.65,NNW,333,5.0,11.0,20,0.00,,FEW100,0.00,VWS V14.01,2013-07-04 19:18:00,
2013-07-04 13:23:00,83.2,38.0,29.64,ENE,65,5.0,11.0,20,0.00,,FEW100,0.00,VWS V14.01,2013-07-04 19:23:00,
2013-07-04 13:28:00,82.9,40.2,29.65,NW,322,4.0,11.0,22,0.00,,FEW100,0.00,VWS V14.01,2013-07-04 19:28:00,
2013-07-04 13:30:00,82.9,39.0,29.64,NNW,330,1.0,11.0,21,0.00,,CLR,0.00,VWS V14.01,2013-07-04 19:30:00,
2013-07-04 13:33:00,83.6,40.8,29.64,SW,231,1.0,2.0,22,0.00,,BKN100,0.00,VWS V14.01,2013-07-04 19:33:00,
2013-07-04 13:38:00,83.5,36.9,29.64,SW,229,4.0,8.0,19,0.00,,BKN100,0.00,VWS V14.01,2013-07-04 19:38:00,
2013-07-04 13:43:00,82.9,37.8,29.64,West,264,5.0,8.0,20,0.00,,BKN100,0.00,VWS V14.01,2013-07-04 19:43:00,
2013-07-04 13:48:00,83.1,37.9,29.64,WNW,302,3.0,8.0,20,0.00,,SCT100,0.00,VWS V14.01,2013-07-04 19:48:00,
2013-07-04 13:53:00,82.9,39.0,29.64,WNW,301,2.0,8.0,21,0.00,,SCT100,0.00,VWS V14.01,2013-07-04 19:53:00,
2013-07-04 13:58:00,83.6,38.3,29.63,WSW,255,10.0,10.0,20,0.00,,SCT100,0.00,VWS V14.01,2013-07-04 19:58:00,
2013-07-04 14:00:00,83.7,38.4,29.63,WNW,298,2.0,10.0,20,0.00,,CLR,0.00,VWS V14.01,2013-07-04 20:00:00,
2013-07-04 14:03:00,83.7,37.1,29.63,WNW,303,3.0,8.0,19,0.00,,FEW110,0.00,VWS V14.01,2013-07-04 20:03:00,
2013-07-04 14:08:00,83.8,38.5,29.63,West,263,11.0,11.0,20,0.00,,FEW110,0.00,VWS V14.01,2013-07-04 20:08:00,
2013-07-04 14:13:00,83.0,37.8,29.63,NNW,327,2.0,11.0,20,0.00,,FEW110,0.00,VWS V14.01,2013-07-04 20:13:00,
2013-07-04 14:18:00,83.1,36.6,29.63,NNW,328,3.0,11.0,19,0.00,,FEW110,0.00,VWS V14.01,2013-07-04 20:18:00,
2013-07-04 14:23:00,83.1,36.6,29.62,WNW,302,1.0,11.0,19,0.00,,FEW110,0.00,VWS V14.01,2013-07-04 20:23:00,
2013-07-04 14:28:00,82.5,36.1,29.62,NNW,337,3.0,11.0,19,0.00,,FEW110,0.00,VWS V14.01,2013-07-04 20:28:00,
2013-07-04 14:30:00,82.4,36.0,29.62,NNW,332,0.0,11.0,19,0.00,,CLR,0.00,VWS V14.01,2013-07-04 20:30:00,
2013-07-04 14:33:00,82.5,36.1,29.62,NW,304,1.0,6.0,19,0.00,,FEW110,0.00,VWS V14.01,2013-07-04 20:33:00,
2013-07-04 14:38:00,82.1,38.3,29.62,ENE,64,3.0,8.0,21,0.00,,FEW110,0.00,VWS V14.01,2013-07-04 20:38:00,
2013-07-04 14:43:00,83.2,36.7,29.62,West,262,1.0,8.0,19,0.00,,FEW110,0.00,VWS V14.01,2013-07-04 20:43:00,
2013-07-04 14:49:00,83.9,38.6,29.61,NNE,30,2.0,8.0,20,0.00,,FEW120,0.00,VWS V14.01,2013-07-04 20:49:00,
2013-07-04 14:54:00,85.3,37.0,29.61,SE,129,0.0,8.0,18,0.00,,FEW120,0.00,VWS V14.01,2013-07-04 20:54:00,
2013-07-04 14:59:00,86.0,36.2,29.61,ESE,103,3.0,9.0,17,0.00,,FEW120,0.00,VWS V14.01,2013-07-04 20:59:00,
2013-07-04 15:00:00,85.8,36.0,29.61,ESE,120,3.0,9.0,17,0.00,,CLR,0.00,VWS V14.01,2013-07-04 21:00:00,
2013-07-04 15:04:00,84.7,35.1,29.61,ENE,77,10.0,17.0,17,0.00,,SCT110,0.00,VWS V14.01,2013-07-04 21:04:00,
2013-07-04 15:09:00,83.8,35.8,29.61,ESE,102,4.0,17.0,18,0.00,,SCT110,0.00,VWS V14.01,2013-07-04 21:09:00,
2013-07-04 15:14:00,83.4,35.5,29.60,East,92,6.0,17.0,18,0.00,,SCT110,0.00,VWS V14.01,2013-07-04 21:14:00,
2013-07-04 15:19:00,82.7,37.6,29.60,ENE,77,6.0,17.0,20,0.00,,SCT110,0.00,VWS V14.01,2013-07-04 21:19:00,
2013-07-04 15:24:00,82.8,36.4,29.60,ENE,60,10.0,17.0,19,0.00,,SCT110,0.00,VWS V14.01,2013-07-04 21:24:00,
2013-07-04 15:29:00,82.5,36.1,29.60,East,81,6.0,17.0,19,0.00,,SCT110,0.00,VWS V14.01,2013-07-04 21:29:00,
2013-07-04 15:30:00,82.4,36.0,29.60,ENE,75,7.0,17.0,19,0.00,,CLR,0.00,VWS V14.01,2013-07-04 21:30:00,
2013-07-04 15:34:00,82.3,37.3,29.60,ENE,78,6.0,13.0,20,0.00,,OVC110,0.00,VWS V14.01,2013-07-04 21:34:00,
2013-07-04 15:39:00,81.9,39.4,29.60,East,84,21.0,28.0,22,0.00,,OVC110,0.00,VWS V14.01,2013-07-04 21:39:00,
2013-07-04 15:44:00,79.4,40.5,29.59,ESE,111,13.0,28.0,25,0.00,,OVC110,0.00,VWS V14.01,2013-07-04 21:44:00,
2013-07-04 15:49:00,80.8,40.7,29.59,ENE,72,5.0,28.0,24,0.00,,OVC110,0.00,VWS V14.01,2013-07-04 21:49:00,
2013-07-04 15:54:00,81.5,40.2,29.59,East,94,11.0,28.0,23,0.00,,OVC110,0.00,VWS V14.01,2013-07-04 21:54:00,
2013-07-04 15:59:00,82.3,38.5,29.58,East,90,6.0,28.0,21,0.00,,OVC110,0.00,VWS V14.01,2013-07-04 21:59:00,
2013-07-04 16:00:00,82.2,38.4,29.58,ESE,111,11.0,28.0,21,0.00,,CLR,0.00,VWS V14.01,2013-07-04 22:00:00,
2013-07-04 16:04:00,82.5,37.4,29.59,ENE,58,5.0,13.0,20,0.00,,FEW110,0.00,VWS V14.01,2013-07-04 22:04:00,
2013-07-04 16:09:00,82.4,37.3,29.59,ENE,61,6.0,16.0,20,0.00,,FEW110,0.00,VWS V14.01,2013-07-04 22:09:00,
2013-07-04 16:14:00,82.5,37.4,29.59,NE,49,14.0,16.0,20,0.00,,FEW110,0.00,VWS V14.01,2013-07-04 22:14:00,
2013-07-04 16:19:00,83.1,39.2,29.58,ENE,73,5.0,16.0,21,0.00,,FEW110,0.00,VWS V14.01,2013-07-04 22:19:00,
2013-07-04 16:24:00,83.4,36.9,29.58,East,86,8.0,17.0,19,0.00,,FEW110,0.00,VWS V14.01,2013-07-04 22:24:00,
2013-07-04 16:29:00,82.9,37.8,29.58,ENE,76,15.0,21.0,20,0.00,,FEW110,0.00,VWS V14.01,2013-07-04 22:29:00,
2013-07-04 16:30:00,82.9,37.8,29.58,ENE,72,10.0,21.0,20,0.00,,CLR,0.00,VWS V14.01,2013-07-04 22:30:00,
2013-07-04 16:34:00,82.6,38.8,29.58,East,95,11.0,22.0,21,0.00,,CLR,0.00,VWS V14.01,2013-07-04 22:34:00,
2013-07-04 16:40:00,81.9,39.4,29.57,East,101,15.0,22.0,22,0.00,,CLR,0.00,VWS V14.01,2013-07-04 22:40:00,
2013-07-04 16:45:00,81.5,39.0,29.58,East,94,11.0,22.0,22,0.00,,CLR,0.00,VWS V14.01,2013-07-04 22:45:00,
2013-07-04 16:50:00,81.5,39.0,29.58,ENE,60,11.0,22.0,22,0.00,,FEW120,0.00,VWS V14.01,2013-07-04 22:50:00,
2013-07-04 16:55:00,81.7,36.8,29.58,ENE,78,7.0,22.0,20,0.00,,FEW120,0.00,VWS V14.01,2013-07-04 22:55:00,
2013-07-04 17:00:00,82.2,37.2,29.57,ENE,76,12.0,22.0,20,0.00,,FEW120,0.00,VWS V14.01,2013-07-04 23:00:00,
2013-07-04 17:05:00,82.4,36.0,29.57,ENE,58,14.0,18.0,19,0.00,,CLR,0.00,VWS V14.01,2013-07-04 23:05:00,
2013-07-04 17:10:00,82.0,37.0,29.57,NE,53,8.0,18.0,20,0.00,,CLR,0.00,VWS V14.01,2013-07-04 23:10:00,
2013-07-04 17:15:00,81.9,36.9,29.57,East,86,16.0,20.0,20,0.00,,CLR,0.00,VWS V14.01,2013-07-04 23:15:00,
2013-07-04 17:20:00,80.6,35.9,29.58,NE,38,18.0,26.0,20,0.00,,CLR,0.00,VWS V14.01,2013-07-04 23:20:00,
2013-07-04 17:25:00,79.6,36.3,29.58,ENE,73,16.0,29.0,21,0.00,,CLR,0.00,VWS V14.01,2013-07-04 23:25:00,
2013-07-04 17:30:00,79.0,37.0,29.57,East,94,8.0,11.0,22,0.00,,CLR,0.00,VWS V14.01,2013-07-04 23:30:00,
2013-07-04 17:35:00,79.3,37.2,29.57,ENE,78,16.0,23.0,22,0.00,,CLR,0.00,VWS V14.01,2013-07-04 23:35:00,
2013-07-04 17:40:00,78.6,36.6,29.57,East,91,18.0,23.0,22,0.00,,CLR,0.00,VWS V14.01,2013-07-04 23:40:00,
2013-07-04 17:45:00,78.2,37.4,29.57,ESE,104,16.0,23.0,23,0.00,,CLR,0.00,VWS V14.01,2013-07-04 23:45:00,
2013-07-04 17:50:00,78.1,37.3,29.58,East,82,4.0,24.0,23,0.00,,CLR,0.00,VWS V14.01,2013-07-04 23:50:00,
2013-07-04 17:55:00,77.9,37.2,29.58,East,82,20.0,24.0,23,0.00,,CLR,0.00,VWS V14.01,2013-07-04 23:55:00,
2013-07-04 18:00:00,77.8,37.1,29.58,East,89,9.0,18.0,23,0.00,,CLR,0.00,VWS V14.01,2013-07-05 00:00:00,
2013-07-04 18:05:00,77.8,37.1,29.58,ESE,102,18.0,20.0,23,0.00,,CLR,0.00,VWS V14.01,2013-07-05 00:05:00,
2013-07-04 18:10:00,78.0,37.2,29.58,ENE,77,13.0,20.0,23,0.00,,CLR,0.00,VWS V14.01,2013-07-05 00:10:00,
2013-07-04 18:15:00,78.4,36.5,29.58,East,82,9.0,20.0,22,0.00,,CLR,0.00,VWS V14.01,2013-07-05 00:15:00,
2013-07-04 18:20:00,79.4,36.1,29.57,East,91,7.0,20.0,21,0.00,,CLR,0.00,VWS V14.01,2013-07-05 00:20:00,
2013-07-04 18:25:00,79.7,36.3,29.58,East,97,8.0,20.0,21,0.00,,CLR,0.00,VWS V14.01,2013-07-05 00:25:00,
2013-07-04 18:30:00,79.8,36.4,29.58,SE,131,5.0,7.0,21,0.00,,CLR,0.00,VWS V14.01,2013-07-05 00:30:00,
2013-07-04 18:35:00,79.7,36.3,29.57,SSE,150,8.0,11.0,21,0.00,,CLR,0.00,VWS V14.01,2013-07-05 00:35:00,
2013-07-04 18:41:00,80.1,35.5,29.57,East,97,5.0,13.0,20,0.00,,CLR,0.00,VWS V14.01,2013-07-05 00:41:00,
2013-07-04 18:46:00,80.0,36.6,29.57,South,179,4.0,13.0,21,0.00,,CLR,0.00,VWS V14.01,2013-07-05 00:46:00,
2013-07-04 18:51:00,80.3,35.6,29.57,SSE,148,4.0,13.0,20,0.00,,CLR,0.00,VWS V14.01,2013-07-05 00:51:00,
2013-07-04 18:56:00,80.2,36.8,29.58,ESE,121,3.0,13.0,21,0.00,,CLR,0.00,VWS V14.01,2013-07-05 00:56:00,
2013-07-04 19:00:00,79.6,36.3,29.58,ESE,121,9.0,13.0,21,0.00,,CLR,0.00,VWS V14.01,2013-07-05 01:00:00,
2013-07-04 19:01:00,79.4,36.1,29.58,ESE,105,9.0,12.0,21,0.00,,CLR,0.00,VWS V14.01,2013-07-05 01:01:00,
2013-07-04 19:06:00,78.5,36.5,29.58,ESE,120,13.0,15.0,22,0.00,,CLR,0.00,VWS V14.01,2013-07-05 01:06:00,
2013-07-04 19:11:00,77.7,37.0,29.58,ESE,110,4.0,15.0,23,0.00,,CLR,0.00,VWS V14.01,2013-07-05 01:11:00,
2013-07-04 19:16:00,77.2,36.6,29.58,East,99,4.0,15.0,23,0.00,,CLR,0.00,VWS V14.01,2013-07-05 01:16:00,
2013-07-04 19:21:00,76.8,36.2,29.59,East,84,4.0,15.0,23,0.00,,CLR,0.00,VWS V14.01,2013-07-05 01:21:00,
2013-07-04 19:26:00,76.4,35.9,29.59,SSE,157,1.0,15.0,23,0.00,,CLR,0.00,VWS V14.01,2013-07-05 01:26:00,
2013-07-04 19:30:00,76.1,35.7,29.59,SE,124,5.0,15.0,23,0.00,,CLR,0.00,VWS V14.01,2013-07-05 01:30:00,
2013-07-04 19:31:00,76.0,35.6,29.59,SE,141,5.0,6.0,23,0.00,,CLR,0.00,VWS V14.01,2013-07-05 01:31:00,
2013-07-04 19:36:00,75.6,36.3,29.59,SE,129,7.0,11.0,24,0.00,,SCT120,0.00,VWS V14.01,2013-07-05 01:36:00,
2013-07-04 19:41:00,75.3,36.0,29.59,ESE,107,7.0,12.0,24,0.00,,SCT120,0.00,VWS V14.01,2013-07-05 01:41:00,
2013-07-04 19:46:00,75.3,36.0,29.59,SE,144,6.0,12.0,24,0.00,,BKN120,0.00,VWS V14.01,2013-07-05 01:46:00,
2013-07-04 19:51:00,75.1,35.9,29.59,SSE,155,7.0,12.0,24,0.00,,BKN120,0.00,VWS V14.01,2013-07-05 01:51:00,
2013-07-04 19:56:00,74.7,35.5,29.59,SE,127,8.0,13.0,24,0.00,,BKN120,0.00,VWS V14.01,2013-07-05 01:56:00,
2013-07-04 20:00:00,74.3,36.2,29.60,SE,131,4.0,14.0,25,0.00,,CLR,0.00,VWS V14.01,2013-07-05 02:00:00,
2013-07-04 20:01:00,74.2,36.2,29.60,ESE,116,9.0,12.0,25,0.00,,SCT120,0.00,VWS V14.01,2013-07-05 02:01:00,
2013-07-04 20:06:00,73.7,36.7,29.60,SE,129,5.0,13.0,26,0.00,,SCT120,0.00,VWS V14.01,2013-07-05 02:06:00,
2013-07-04 20:11:00,73.2,37.2,29.60,SSE,150,6.0,13.0,27,0.00,,SCT120,0.00,VWS V14.01,2013-07-05 02:11:00,
2013-07-04 20:16:00,72.7,36.8,29.60,SE,137,7.0,14.0,27,0.00,,SCT120,0.00,VWS V14.01,2013-07-05 02:16:00,
2013-07-04 20:21:00,72.3,37.4,29.59,SE,138,9.0,14.0,28,0.00,,SCT120,0.00,VWS V14.01,2013-07-05 02:21:00,
2013-07-04 20:26:00,72.2,36.4,29.60,SSE,149,6.0,14.0,27,0.00,,SCT120,0.00,VWS V14.01,2013-07-05 02:26:00,
2013-07-04 20:30:00,72.0,37.1,29.60,East,84,7.0,14.0,28,0.00,,CLR,0.00,VWS V14.01,2013-07-05 02:30:00,
2013-07-04 20:31:00,71.9,37.1,29.60,SSE,149,9.0,10.0,28,0.00,,CLR,0.00,VWS V14.01,2013-07-05 02:31:00,
2013-07-04 20:36:00,71.7,37.8,29.60,SSE,155,9.0,11.0,29,0.00,,CLR,0.00,VWS V14.01,2013-07-05 02:36:00,
2013-07-04 20:41:00,71.3,37.4,29.60,SE,141,10.0,19.0,29,0.00,,CLR,0.00,VWS V14.01,2013-07-05 02:41:00,
2013-07-04 20:46:00,70.9,38.0,29.60,SSE,156,8.0,19.0,30,0.00,,CLR,0.00,VWS V14.01,2013-07-05 02:46:00,
2013-07-04 20:51:00,70.5,38.4,29.61,SE,139,11.0,19.0,31,0.00,,CLR,0.00,VWS V14.01,2013-07-05 02:51:00,
2013-07-04 20:56:00,70.3,38.3,29.61,SSE,159,12.0,19.0,31,0.00,,CLR,0.00,VWS V14.01,2013-07-05 02:56:00,
2013-07-04 21:00:00,70.0,38.8,29.61,SSE,153,9.0,19.0,32,0.00,,CLR,0.00,VWS V14.01,2013-07-05 03:00:00,
2013-07-04 21:02:00,70.0,38.8,29.62,SE,135,7.0,16.0,32,0.00,,BKN110,0.00,VWS V14.01,2013-07-05 03:02:00,
2013-07-04 21:07:00,69.7,38.5,29.62,SE,139,10.0,16.0,32,0.00,,BKN110,0.00,VWS V14.01,2013-07-05 03:07:00,
2013-07-04 21:12:00,69.6,38.5,29.62,SSE,156,9.0,16.0,32,0.00,,BKN110,0.00,VWS V14.01,2013-07-05 03:12:00,
2013-07-04 21:17:00,69.4,38.3,29.62,East,101,10.0,16.0,32,0.00,,BKN110,0.00,VWS V14.01,2013-07-05 03:17:00,
2013-07-04 21:22:00,69.4,38.3,29.62,SE,126,6.0,16.0,32,0.00,,BKN110,0.00,VWS V14.01,2013-07-05 03:22:00,
2013-07-04 21:27:00,69.1,38.8,29.64,SSW,198,6.0,16.0,33,0.00,,BKN110,0.00,VWS V14.01,2013-07-05 03:27:00,
2013-07-04 21:30:00,69.2,38.1,29.64,ENE,77,0.0,16.0,32,0.00,,CLR,0.00,VWS V14.01,2013-07-05 03:30:00,
2013-07-04 21:32:00,69.3,38.2,29.64,ENE,72,3.0,6.0,32,0.00,,SCT110,0.00,VWS V14.01,2013-07-05 03:32:00,
2013-07-04 21:37:00,69.4,37.5,29.64,NE,46,4.0,7.0,31,0.00,,SCT110,0.00,VWS V14.01,2013-07-05 03:37:00,
2013-07-04 21:42:00,69.4,37.5,29.65,ESE,103,4.0,9.0,31,0.00,,SCT110,0.00,VWS V14.01,2013-07-05 03:42:00,
2013-07-04 21:47:00,69.3,37.4,29.66,ENE,77,2.0,9.0,31,0.00,,CLR,0.00,VWS V14.01,2013-07-05 03:47:00,
2013-07-04 21:52:00,69.0,37.9,29.66,ESE,103,4.0,9.0,32,0.00,,CLR,0.00,VWS V14.01,2013-07-05 03:52:00,
2013-07-04 21:57:00,69.2,37.3,29.66,East,100,8.0,16.0,31,0.00,,CLR,0.00,VWS V14.01,2013-07-05 03:57:00,
2013-07-04 22:00:00,70.1,37.3,29.66,ENE,70,9.0,16.0,30,0.00,,CLR,0.00,VWS V14.01,2013-07-05 04:00:00,
2013-07-04 22:01:00,70.2,38.2,29.65,SE,132,11.0,15.0,31,0.00,,CLR,0.00,VWS V14.01,2013-07-05 04:01:00,
2013-07-04 22:02:00,70.3,38.3,29.65,East,82,9.0,17.0,31,0.00,,CLR,0.00,VWS V14.01,2013-07-05 04:02:00,
2013-07-04 22:04:00,70.3,39.1,29.66,ENE,78,8.0,20.0,32,0.00,,CLR,0.00,VWS V14.01,2013-07-05 04:04:00,
2013-07-04 22:05:00,70.2,39.0,29.66,ESE,103,10.0,20.0,32,0.00,,CLR,0.00,VWS V14.01,2013-07-05 04:05:00,
2013-07-04 22:06:00,70.2,39.0,29.66,East,92,4.0,20.0,32,0.00,,CLR,0.00,VWS V14.01,2013-07-05 04:06:00,
2013-07-04 22:11:00,69.4,40.6,29.66,East,84,12.0,20.0,35,0.00,,CLR,0.00,VWS V14.01,2013-07-05 04:11:00,
2013-07-04 22:16:00,68.6,39.9,29.66,SE,124,6.0,21.0,35,0.00,,CLR,0.00,VWS V14.01,2013-07-05 04:16:00,
2013-07-04 22:21:00,68.4,41.1,29.67,East,89,14.0,21.0,37,0.00,,CLR,0.00,VWS V14.01,2013-07-05 04:21:00,
2013-07-04 22:26:00,67.2,42.1,29.66,SE,137,8.0,21.0,40,0.00,,CLR,0.00,VWS V14.01,2013-07-05 04:26:00,
2013-07-04 22:30:00,66.6,42.2,29.66,East,101,15.0,21.0,41,0.00,,CLR,0.00,VWS V14.01,2013-07-05 04:30:00,
2013-07-04 22:31:00,66.5,42.1,29.66,SE,134,12.0,19.0,41,0.00,,CLR,0.00,VWS V14.01,2013-07-05 04:31:00,
2013-07-04 22:36:00,66.0,42.3,29.66,ESE,118,10.0,21.0,42,0.00,,CLR,0.00,VWS V14.01,2013-07-05 04:36:00,
2013-07-04 22:41:00,65.6,43.1,29.66,SE,139,11.0,24.0,44,0.00,,CLR,0.00,VWS V14.01,2013-07-05 04:41:00,
2013-07-04 22:46:00,65.5,43.0,29.66,SE,135,13.0,24.0,44,0.00,,CLR,0.00,VWS V14.01,2013-07-05 04:46:00,
2013-07-04 22:51:00,65.5,43.0,29.66,SE,131,13.0,24.0,44,0.00,,CLR,0.00,VWS V14.01,2013-07-05 04:51:00,
2013-07-04 22:56:00,65.4,42.9,29.66,ESE,121,20.0,24.0,44,0.00,,CLR,0.00,VWS V14.01,2013-07-05 04:56:00,
2013-07-04 23:00:00,65.5,43.0,29.66,SE,146,5.0,24.0,44,0.00,,CLR,0.00,VWS V14.01,2013-07-05 05:00:00,
2013-07-04 23:01:00,65.5,43.0,29.66,SE,127,13.0,17.0,44,0.00,,CLR,0.00,VWS V14.01,2013-07-05 05:01:00,
2013-07-04 23:06:00,65.5,43.0,29.65,SE,133,12.0,17.0,44,0.00,,CLR,0.00,VWS V14.01,2013-07-05 05:06:00,
2013-07-04 23:11:00,65.8,42.7,29.65,ESE,117,12.0,19.0,43,0.00,,CLR,0.00,VWS V14.01,2013-07-05 05:11:00,
2013-07-04 23:16:00,66.2,41.8,29.65,SSE,153,13.0,19.0,41,0.00,,CLR,0.00,VWS V14.01,2013-07-05 05:16:00,
2013-07-04 23:21:00,66.7,41.6,29.65,SE,128,7.0,19.0,40,0.00,,CLR,0.00,VWS V14.01,2013-07-05 05:21:00,
2013-07-04 23:26:00,67.1,41.3,29.65,ESE,116,11.0,19.0,39,0.00,,CLR,0.00,VWS V14.01,2013-07-05 05:26:00,
2013-07-04 23:30:00,67.1,42.0,29.66,SE,144,9.0,19.0,40,0.00,,CLR,0.00,VWS V14.01,2013-07-05 05:30:00,
2013-07-04 23:32:00,67.1,42.0,29.66,SSW,204,6.0,13.0,40,0.00,,CLR,0.00,VWS V14.01,2013-07-05 05:32:00,
2013-07-04 23:37:00,66.9,41.8,29.66,SE,127,8.0,14.0,40,0.00,,CLR,0.00,VWS V14.01,2013-07-05 05:37:00,
2013-07-04 23:42:00,66.9,41.8,29.66,SE,139,9.0,14.0,40,0.00,,CLR,0.00,VWS V14.01,2013-07-05 05:42:00,
2013-07-04 23:47:00,66.8,41.7,29.66,SE,124,10.0,14.0,40,0.00,,CLR,0.00,VWS V14.01,2013-07-05 05:47:00,
2013-07-04 23:52:00,66.6,42.2,29.65,ESE,106,4.0,14.0,41,0.00,,CLR,0.00,VWS V14.01,2013-07-05 05:52:00,
2013-07-04 23:57:00,66.0,42.3,29.66,ENE,77,1.0,14.0,42,0.00,,CLR,0.00,VWS V14.01,2013-07-05 05:57:00,